Terminal Aerodrome Forecast
Issued by NWS Duluth, MN

Home | Current Version | Previous Version | Text Only | Print | Product List | Glossary On
Versions: 1 2 3 4 5 6 7 8 9 10 11 12 13 14 15 16 17 18 19 20 21 22 23 24
000
FTUS43 KDLH 011045 AAB
TAFDLH
TAF AMD
KDLH 011045Z 0111/0206 35009KT P6SM -SN SCT009 OVC050
     FM011400 34011G17KT P6SM SCT012 OVC028
     FM011900 33012KT P6SM OVC025
     FM020300 32008KT P6SM BKN025=

USA.gov is the U.S. government's official web portal to all federal, state and local government web resources and services.